sensor_id;sensor_type;location;lat;lon;timestamp;P1;durP1;ratioP1;P2;durP2;ratioP2
51957;SDS011;41120;51.820;20.804;2023-04-10T09:21:48;6.37;;;4.53;;
51957;SDS011;41120;51.820;20.804;2023-04-10T09:27:30;6.80;;;4.17;;
51957;SDS011;41120;51.820;20.804;2023-04-10T09:30:03;10.43;;;4.67;;
51957;SDS011;41120;51.820;20.804;2023-04-10T09:35:34;6.27;;;4.53;;
51957;SDS011;41120;51.820;20.804;2023-04-10T09:40:52;7.57;;;4.87;;
51957;SDS011;41120;51.820;20.804;2023-04-10T09:46:11;8.32;;;4.22;;
51957;SDS011;41120;51.820;20.804;2023-04-10T09:48:43;6.77;;;4.23;;
51957;SDS011;41120;51.820;20.804;2023-04-10T09:51:31;5.63;;;4.00;;
51957;SDS011;41120;51.820;20.804;2023-04-10T09:54:01;7.10;;;4.20;;
51957;SDS011;41120;51.820;20.804;2023-04-10T09:56:32;5.60;;;4.53;;
51957;SDS011;41120;51.820;20.804;2023-04-10T09:59:03;7.53;;;4.13;;
51957;SDS011;41120;51.820;20.804;2023-04-10T10:01:40;9.87;;;5.20;;
51957;SDS011;41120;51.820;20.804;2023-04-10T10:04:09;7.63;;;4.50;;
51957;SDS011;41120;51.820;20.804;2023-04-10T10:06:41;8.33;;;4.33;;
51957;SDS011;41120;51.820;20.804;2023-04-10T10:09:13;5.97;;;4.10;;
51957;SDS011;41120;51.820;20.804;2023-04-10T10:11:50;6.93;;;4.67;;
51957;SDS011;41120;51.820;20.804;2023-04-10T10:14:27;5.43;;;3.60;;
51957;SDS011;41120;51.820;20.804;2023-04-10T10:16:55;6.63;;;3.93;;
51957;SDS011;41120;51.820;20.804;2023-04-10T10:30:47;4.10;;;2.90;;
51957;SDS011;41120;51.820;20.804;2023-04-10T10:33:26;5.57;;;3.13;;
51957;SDS011;41120;51.820;20.804;2023-04-10T10:48:09;5.17;;;3.33;;
51957;SDS011;41120;51.820;20.804;2023-04-10T10:59:17;4.37;;;2.77;;
51957;SDS011;41120;51.820;20.804;2023-04-10T11:13:40;3.23;;;2.57;;
51957;SDS011;41120;51.820;20.804;2023-04-10T11:16:08;5.47;;;2.90;;
51957;SDS011;41120;51.820;20.804;2023-04-10T11:26:41;4.20;;;2.70;;
51957;SDS011;41120;51.820;20.804;2023-04-10T11:34:41;5.00;;;2.73;;
51957;SDS011;41120;51.820;20.804;2023-04-10T11:37:09;5.70;;;2.97;;
51957;SDS011;41120;51.820;20.804;2023-04-10T11:40:01;6.80;;;3.10;;
51957;SDS011;41120;51.820;20.804;2023-04-10T11:45:45;3.70;;;2.87;;
51957;SDS011;41120;51.820;20.804;2023-04-10T11:51:08;4.97;;;3.00;;
51957;SDS011;41120;51.820;20.804;2023-04-10T11:53:38;4.20;;;2.53;;
51957;SDS011;41120;51.820;20.804;2023-04-10T12:01:23;6.67;;;2.87;;
51957;SDS011;41120;51.820;20.804;2023-04-10T12:06:58;12.67;;;5.60;;
51957;SDS011;41120;51.820;20.804;2023-04-10T12:14:39;3.93;;;3.17;;
51957;SDS011;41120;51.820;20.804;2023-04-10T12:17:07;4.40;;;3.10;;
51957;SDS011;41120;51.820;20.804;2023-04-10T12:19:40;4.03;;;2.77;;
51957;SDS011;41120;51.820;20.804;2023-04-10T12:27:48;5.27;;;2.80;;
51957;SDS011;41120;51.820;20.804;2023-04-10T12:30:19;6.30;;;2.70;;
51957;SDS011;41120;51.820;20.804;2023-04-10T12:32:51;4.80;;;2.83;;
51957;SDS011;41120;51.820;20.804;2023-04-10T12:41:19;3.80;;;2.67;;
51957;SDS011;41120;51.820;20.804;2023-04-10T12:44:07;5.43;;;2.70;;
51957;SDS011;41120;51.820;20.804;2023-04-10T12:49:37;3.90;;;2.77;;
51957;SDS011;41120;51.820;20.804;2023-04-10T12:52:06;3.63;;;2.90;;
51957;SDS011;41120;51.820;20.804;2023-04-10T12:57:10;11.47;;;3.20;;
51957;SDS011;41120;51.820;20.804;2023-04-10T12:59:52;3.33;;;2.80;;
51957;SDS011;41120;51.820;20.804;2023-04-10T13:02:20;6.73;;;3.10;;
51957;SDS011;41120;51.820;20.804;2023-04-10T13:08:02;5.03;;;2.63;;
51957;SDS011;41120;51.820;20.804;2023-04-10T13:10:45;4.17;;;2.90;;
51957;SDS011;41120;51.820;20.804;2023-04-10T13:13:22;4.87;;;3.50;;
51957;SDS011;41120;51.820;20.804;2023-04-10T13:18:54;5.07;;;2.90;;
51957;SDS011;41120;51.820;20.804;2023-04-10T13:21:26;4.60;;;3.58;;
51957;SDS011;41120;51.820;20.804;2023-04-10T13:24:03;6.10;;;3.00;;
51957;SDS011;41120;51.820;20.804;2023-04-10T13:26:29;5.53;;;3.07;;
51957;SDS011;41120;51.820;20.804;2023-04-10T13:28:56;4.50;;;3.10;;
51957;SDS011;41120;51.820;20.804;2023-04-10T13:31:23;4.97;;;3.03;;
51957;SDS011;41120;51.820;20.804;2023-04-10T13:34:05;5.43;;;3.27;;
51957;SDS011;41120;51.820;20.804;2023-04-10T13:36:41;6.23;;;3.13;;
51957;SDS011;41120;51.820;20.804;2023-04-10T13:41:56;5.97;;;2.47;;
51957;SDS011;41120;51.820;20.804;2023-04-10T13:44:35;3.83;;;2.73;;
51957;SDS011;41120;51.820;20.804;2023-04-10T13:47:01;4.00;;;2.67;;
51957;SDS011;41120;51.820;20.804;2023-04-10T13:49:33;4.87;;;2.70;;
51957;SDS011;41120;51.820;20.804;2023-04-10T13:52:05;3.30;;;2.40;;
51957;SDS011;41120;51.820;20.804;2023-04-10T13:54:38;5.83;;;2.60;;
51957;SDS011;41120;51.820;20.804;2023-04-10T13:57:06;7.23;;;2.40;;
51957;SDS011;41120;51.820;20.804;2023-04-10T13:59:34;4.23;;;2.70;;
51957;SDS011;41120;51.820;20.804;2023-04-10T14:02:01;3.00;;;2.70;;
51957;SDS011;41120;51.820;20.804;2023-04-10T14:04:27;5.73;;;2.80;;
51957;SDS011;41120;51.820;20.804;2023-04-10T14:06:54;6.97;;;3.20;;
51957;SDS011;41120;51.820;20.804;2023-04-10T14:09:24;6.70;;;3.53;;
51957;SDS011;41120;51.820;20.804;2023-04-10T14:12:01;4.23;;;2.97;;
51957;SDS011;41120;51.820;20.804;2023-04-10T14:14:33;5.57;;;2.60;;
51957;SDS011;41120;51.820;20.804;2023-04-10T14:16:59;8.17;;;3.43;;
51957;SDS011;41120;51.820;20.804;2023-04-10T14:19:28;5.10;;;3.10;;
51957;SDS011;41120;51.820;20.804;2023-04-10T14:21:56;4.87;;;3.03;;
51957;SDS011;41120;51.820;20.804;2023-04-10T14:24:24;7.17;;;3.73;;
51957;SDS011;41120;51.820;20.804;2023-04-10T14:29:25;3.93;;;2.83;;
51957;SDS011;41120;51.820;20.804;2023-04-10T14:31:52;7.17;;;3.80;;
51957;SDS011;41120;51.820;20.804;2023-04-10T14:34:21;6.67;;;3.10;;
51957;SDS011;41120;51.820;20.804;2023-04-10T14:36:55;7.60;;;2.93;;
51957;SDS011;41120;51.820;20.804;2023-04-10T14:39:22;5.53;;;3.80;;
51957;SDS011;41120;51.820;20.804;2023-04-10T14:41:49;7.13;;;3.47;;
51957;SDS011;41120;51.820;20.804;2023-04-10T14:44:19;6.70;;;3.83;;
51957;SDS011;41120;51.820;20.804;2023-04-10T14:46:45;7.70;;;3.57;;
51957;SDS011;41120;51.820;20.804;2023-04-10T14:49:14;10.07;;;4.10;;
51957;SDS011;41120;51.820;20.804;2023-04-10T14:51:43;7.23;;;3.17;;
51957;SDS011;41120;51.820;20.804;2023-04-10T14:54:13;4.67;;;2.90;;
51957;SDS011;41120;51.820;20.804;2023-04-10T14:56:41;6.70;;;2.90;;
51957;SDS011;41120;51.820;20.804;2023-04-10T14:59:07;2.90;;;2.43;;
51957;SDS011;41120;51.820;20.804;2023-04-10T15:01:33;6.83;;;2.57;;
51957;SDS011;41120;51.820;20.804;2023-04-10T15:04:03;3.40;;;2.50;;
51957;SDS011;41120;51.820;20.804;2023-04-10T15:06:33;4.63;;;2.90;;
51957;SDS011;41120;51.820;20.804;2023-04-10T15:09:01;6.37;;;2.63;;
51957;SDS011;41120;51.820;20.804;2023-04-10T15:11:30;4.87;;;2.90;;
51957;SDS011;41120;51.820;20.804;2023-04-10T15:13:59;6.87;;;3.20;;
51957;SDS011;41120;51.820;20.804;2023-04-10T15:16:26;6.90;;;3.80;;
51957;SDS011;41120;51.820;20.804;2023-04-10T15:18:55;8.57;;;4.63;;
51957;SDS011;41120;51.820;20.804;2023-04-10T15:21:23;6.57;;;3.80;;
51957;SDS011;41120;51.820;20.804;2023-04-10T15:23:50;8.77;;;4.10;;
51957;SDS011;41120;51.820;20.804;2023-04-10T15:26:16;7.43;;;3.33;;
51957;SDS011;41120;51.820;20.804;2023-04-10T15:28:42;7.90;;;5.00;;
51957;SDS011;41120;51.820;20.804;2023-04-10T15:31:10;6.50;;;4.40;;
51957;SDS011;41120;51.820;20.804;2023-04-10T15:33:36;10.27;;;5.27;;
51957;SDS011;41120;51.820;20.804;2023-04-10T15:36:04;7.00;;;4.23;;
51957;SDS011;41120;51.820;20.804;2023-04-10T15:38:36;4.47;;;3.07;;
51957;SDS011;41120;51.820;20.804;2023-04-10T15:41:09;4.97;;;4.13;;
51957;SDS011;41120;51.820;20.804;2023-04-10T15:43:39;5.37;;;3.73;;
51957;SDS011;41120;51.820;20.804;2023-04-10T15:46:06;7.20;;;3.17;;
51957;SDS011;41120;51.820;20.804;2023-04-10T15:48:36;7.47;;;3.60;;
51957;SDS011;41120;51.820;20.804;2023-04-10T15:51:04;6.20;;;3.30;;
51957;SDS011;41120;51.820;20.804;2023-04-10T15:53:40;5.33;;;3.40;;
51957;SDS011;41120;51.820;20.804;2023-04-10T15:56:06;5.50;;;3.00;;
51957;SDS011;41120;51.820;20.804;2023-04-10T15:58:41;6.53;;;3.60;;
51957;SDS011;41120;51.820;20.804;2023-04-10T16:01:11;5.67;;;3.07;;
51957;SDS011;41120;51.820;20.804;2023-04-10T16:06:14;5.43;;;3.23;;
51957;SDS011;41120;51.820;20.804;2023-04-10T16:08:44;4.70;;;3.37;;
51957;SDS011;41120;51.820;20.804;2023-04-10T16:11:13;4.80;;;2.57;;
51957;SDS011;41120;51.820;20.804;2023-04-10T16:16:37;6.63;;;3.20;;
51957;SDS011;41120;51.820;20.804;2023-04-10T16:19:14;8.03;;;3.30;;
51957;SDS011;41120;51.820;20.804;2023-04-10T16:21:46;9.33;;;3.37;;
51957;SDS011;41120;51.820;20.804;2023-04-10T16:24:24;6.27;;;3.87;;
51957;SDS011;41120;51.820;20.804;2023-04-10T16:26:52;4.50;;;3.70;;
51957;SDS011;41120;51.820;20.804;2023-04-10T16:29:21;7.30;;;3.53;;
51957;SDS011;41120;51.820;20.804;2023-04-10T16:31:51;6.17;;;3.57;;
51957;SDS011;41120;51.820;20.804;2023-04-10T16:34:18;8.13;;;4.00;;
51957;SDS011;41120;51.820;20.804;2023-04-10T16:36:47;4.57;;;3.70;;
51957;SDS011;41120;51.820;20.804;2023-04-10T16:39:16;6.70;;;4.60;;
51957;SDS011;41120;51.820;20.804;2023-04-10T16:41:55;9.70;;;4.83;;
51957;SDS011;41120;51.820;20.804;2023-04-10T16:46:59;9.63;;;5.23;;
51957;SDS011;41120;51.820;20.804;2023-04-10T16:53:22;9.27;;;4.53;;
51957;SDS011;41120;51.820;20.804;2023-04-10T17:01:44;11.03;;;4.57;;
51957;SDS011;41120;51.820;20.804;2023-04-10T17:04:15;10.57;;;3.73;;
51957;SDS011;41120;51.820;20.804;2023-04-10T17:06:49;11.77;;;4.67;;
51957;SDS011;41120;51.820;20.804;2023-04-10T17:09:15;10.23;;;4.10;;
51957;SDS011;41120;51.820;20.804;2023-04-10T17:14:24;9.43;;;4.32;;
51957;SDS011;41120;51.820;20.804;2023-04-10T17:16:58;16.10;;;4.70;;
51957;SDS011;41120;51.820;20.804;2023-04-10T17:19:26;8.30;;;3.80;;
51957;SDS011;41120;51.820;20.804;2023-04-10T17:21:53;9.83;;;3.90;;
51957;SDS011;41120;51.820;20.804;2023-04-10T17:24:20;11.07;;;4.20;;
51957;SDS011;41120;51.820;20.804;2023-04-10T17:26:50;10.77;;;4.57;;
51957;SDS011;41120;51.820;20.804;2023-04-10T17:29:16;9.30;;;4.20;;
51957;SDS011;41120;51.820;20.804;2023-04-10T17:31:44;10.87;;;4.93;;
51957;SDS011;41120;51.820;20.804;2023-04-10T17:34:12;13.27;;;4.80;;
51957;SDS011;41120;51.820;20.804;2023-04-10T17:36:45;6.47;;;4.57;;
51957;SDS011;41120;51.820;20.804;2023-04-10T17:39:29;12.23;;;5.60;;
51957;SDS011;41120;51.820;20.804;2023-04-10T17:41:57;16.75;;;6.85;;
51957;SDS011;41120;51.820;20.804;2023-04-10T17:44:24;15.33;;;9.30;;
51957;SDS011;41120;51.820;20.804;2023-04-10T17:46:56;18.23;;;9.00;;
51957;SDS011;41120;51.820;20.804;2023-04-10T17:49:23;11.97;;;7.10;;
51957;SDS011;41120;51.820;20.804;2023-04-10T17:51:56;10.00;;;5.53;;
51957;SDS011;41120;51.820;20.804;2023-04-10T17:54:34;8.80;;;4.90;;
51957;SDS011;41120;51.820;20.804;2023-04-10T17:57:05;8.93;;;5.20;;
51957;SDS011;41120;51.820;20.804;2023-04-10T18:04:34;10.27;;;5.23;;
51957;SDS011;41120;51.820;20.804;2023-04-10T18:07:00;9.27;;;5.80;;
51957;SDS011;41120;51.820;20.804;2023-04-10T18:09:28;13.17;;;7.10;;
51957;SDS011;41120;51.820;20.804;2023-04-10T18:14:46;17.73;;;10.47;;
51957;SDS011;41120;51.820;20.804;2023-04-10T18:17:15;27.43;;;13.77;;
51957;SDS011;41120;51.820;20.804;2023-04-10T18:22:18;19.83;;;12.47;;
51957;SDS011;41120;51.820;20.804;2023-04-10T18:24:50;37.53;;;18.65;;
51957;SDS011;41120;51.820;20.804;2023-04-10T18:27:19;74.40;;;29.47;;
51957;SDS011;41120;51.820;20.804;2023-04-10T18:29:47;503.17;;;257.10;;
51957;SDS011;41120;51.820;20.804;2023-04-10T18:32:32;190.63;;;112.17;;
51957;SDS011;41120;51.820;20.804;2023-04-10T18:34:59;178.83;;;114.47;;
51957;SDS011;41120;51.820;20.804;2023-04-10T18:37:31;176.17;;;91.50;;
51957;SDS011;41120;51.820;20.804;2023-04-10T18:46:34;224.37;;;79.87;;
51957;SDS011;41120;51.820;20.804;2023-04-10T18:50:00;130.80;;;46.80;;
51957;SDS011;41120;51.820;20.804;2023-04-10T18:53:01;20.90;;;11.27;;
51957;SDS011;41120;51.820;20.804;2023-04-10T18:55:52;14.67;;;8.00;;
51957;SDS011;41120;51.820;20.804;2023-04-10T19:02:05;33.30;;;19.63;;
51957;SDS011;41120;51.820;20.804;2023-04-10T19:08:15;140.73;;;65.63;;
51957;SDS011;41120;51.820;20.804;2023-04-10T19:10:52;53.97;;;28.50;;
51957;SDS011;41120;51.820;20.804;2023-04-10T19:13:25;23.73;;;13.37;;
51957;SDS011;41120;51.820;20.804;2023-04-10T19:21:18;13.57;;;8.80;;
51957;SDS011;41120;51.820;20.804;2023-04-10T19:23:51;19.63;;;10.17;;
51957;SDS011;41120;51.820;20.804;2023-04-10T19:26:26;17.80;;;10.60;;
51957;SDS011;41120;51.820;20.804;2023-04-10T19:28:55;40.00;;;19.00;;
51957;SDS011;41120;51.820;20.804;2023-04-10T19:34:30;22.87;;;13.73;;
51957;SDS011;41120;51.820;20.804;2023-04-10T19:37:04;17.48;;;10.68;;
51957;SDS011;41120;51.820;20.804;2023-04-10T19:39:31;16.63;;;11.30;;
51957;SDS011;41120;51.820;20.804;2023-04-10T19:42:08;15.47;;;9.90;;
51957;SDS011;41120;51.820;20.804;2023-04-10T19:44:37;38.83;;;21.73;;
51957;SDS011;41120;51.820;20.804;2023-04-10T19:47:18;15.63;;;10.97;;
51957;SDS011;41120;51.820;20.804;2023-04-10T19:49:47;12.70;;;9.13;;
51957;SDS011;41120;51.820;20.804;2023-04-10T19:52:13;44.20;;;24.27;;
51957;SDS011;41120;51.820;20.804;2023-04-10T19:54:43;187.13;;;96.60;;
51957;SDS011;41120;51.820;20.804;2023-04-10T19:57:09;83.97;;;44.63;;
51957;SDS011;41120;51.820;20.804;2023-04-10T20:02:11;18.13;;;10.97;;
51957;SDS011;41120;51.820;20.804;2023-04-10T20:04:40;18.50;;;11.47;;
51957;SDS011;41120;51.820;20.804;2023-04-10T20:07:07;12.73;;;7.80;;
51957;SDS011;41120;51.820;20.804;2023-04-10T20:22:59;11.00;;;7.35;;
51957;SDS011;41120;51.820;20.804;2023-04-10T20:28:28;12.57;;;7.93;;
51957;SDS011;41120;51.820;20.804;2023-04-10T20:30:57;11.32;;;7.45;;
51957;SDS011;41120;51.820;20.804;2023-04-10T20:45:27;14.25;;;8.55;;
51957;SDS011;41120;51.820;20.804;2023-04-10T20:51:20;11.05;;;8.13;;
51957;SDS011;41120;51.820;20.804;2023-04-10T20:54:22;11.50;;;7.38;;
51957;SDS011;41120;51.820;20.804;2023-04-10T21:00:40;12.05;;;7.07;;
51957;SDS011;41120;51.820;20.804;2023-04-10T21:03:20;11.88;;;7.20;;
51957;SDS011;41120;51.820;20.804;2023-04-10T21:05:53;9.88;;;6.72;;
51957;SDS011;41120;51.820;20.804;2023-04-10T21:08:20;9.07;;;6.40;;
51957;SDS011;41120;51.820;20.804;2023-04-10T21:10:51;11.43;;;6.87;;
51957;SDS011;41120;51.820;20.804;2023-04-10T21:13:19;11.90;;;7.65;;
51957;SDS011;41120;51.820;20.804;2023-04-10T21:21:55;25.10;;;10.53;;
51957;SDS011;41120;51.820;20.804;2023-04-10T21:33:23;18.08;;;10.00;;
51957;SDS011;41120;51.820;20.804;2023-04-10T21:35:56;23.17;;;11.40;;
51957;SDS011;41120;51.820;20.804;2023-04-10T21:47:01;13.30;;;7.68;;
51957;SDS011;41120;51.820;20.804;2023-04-10T21:52:21;10.05;;;7.78;;
51957;SDS011;41120;51.820;20.804;2023-04-10T21:54:56;17.67;;;8.35;;
51957;SDS011;41120;51.820;20.804;2023-04-10T21:57:29;9.90;;;7.88;;
51957;SDS011;41120;51.820;20.804;2023-04-10T22:00:07;12.95;;;8.75;;
51957;SDS011;41120;51.820;20.804;2023-04-10T22:02:51;21.70;;;11.57;;
51957;SDS011;41120;51.820;20.804;2023-04-10T22:05:21;14.18;;;8.43;;
51957;SDS011;41120;51.820;20.804;2023-04-10T22:14:08;32.97;;;17.90;;
51957;SDS011;41120;51.820;20.804;2023-04-10T22:16:35;37.55;;;22.27;;
51957;SDS011;41120;51.820;20.804;2023-04-10T22:22:26;27.88;;;16.90;;
51957;SDS011;41120;51.820;20.804;2023-04-10T22:42:47;16.80;;;10.35;;
51957;SDS011;41120;51.820;20.804;2023-04-10T22:45:25;13.98;;;10.35;;
51957;SDS011;41120;51.820;20.804;2023-04-10T22:47:52;15.40;;;10.73;;
51957;SDS011;41120;51.820;20.804;2023-04-10T22:53:22;15.68;;;10.85;;
51957;SDS011;41120;51.820;20.804;2023-04-10T22:58:22;18.33;;;13.13;;
51957;SDS011;41120;51.820;20.804;2023-04-10T23:03:18;27.30;;;17.48;;
51957;SDS011;41120;51.820;20.804;2023-04-10T23:05:52;34.72;;;20.38;;
51957;SDS011;41120;51.820;20.804;2023-04-10T23:08:25;41.65;;;22.55;;
51957;SDS011;41120;51.820;20.804;2023-04-10T23:26:50;22.42;;;14.25;;
51957;SDS011;41120;51.820;20.804;2023-04-10T23:29:17;27.50;;;18.17;;
51957;SDS011;41120;51.820;20.804;2023-04-10T23:34:22;30.15;;;20.23;;
51957;SDS011;41120;51.820;20.804;2023-04-10T23:48:20;26.92;;;17.80;;
51957;SDS011;41120;51.820;20.804;2023-04-10T23:51:04;23.23;;;15.52;;
51957;SDS011;41120;51.820;20.804;2023-04-10T23:59:03;20.98;;;13.55;;
